createdAt,value
2023-03-11T07:10:16.261Z,55.200195
2023-03-11T07:11:16.096Z,55.297852
2023-03-11T07:12:18.708Z,55.523682
2023-03-11T07:13:14.991Z,55.725098
2023-03-11T07:14:16.053Z,55.224609
2023-03-11T07:15:15.060Z,54.925537
2023-03-11T07:16:15.004Z,54.449463
2023-03-11T07:17:15.101Z,54.449463
2023-03-11T07:18:16.069Z,54.046631
2023-03-11T07:19:16.068Z,54.150391
2023-03-11T07:20:16.093Z,54.248047
2023-03-11T07:21:16.054Z,54.449463
2023-03-11T07:22:15.082Z,56.152344
2023-03-11T07:23:16.388Z,55.780029
2023-03-11T07:24:15.950Z,55.175781
2023-03-11T07:25:16.037Z,55.651855
2023-03-11T07:26:14.937Z,55.950928
2023-03-11T07:27:17.019Z,55.249023
2023-03-11T07:28:14.945Z,55.047607
2023-03-11T07:29:16.860Z,54.547119
2023-03-11T07:30:15.428Z,54.046631
2023-03-11T07:31:16.161Z,55.249023
2023-03-11T07:32:14.870Z,56.628418
2023-03-11T07:33:14.830Z,57.226562
2023-03-11T07:34:14.882Z,54.724121
2023-03-11T07:35:14.806Z,53.118896
2023-03-11T07:36:15.854Z,53.192139
2023-03-11T07:37:14.943Z,52.79541
2023-03-11T07:38:19.343Z,53.295898
2023-03-11T07:39:15.764Z,53.692627
2023-03-11T07:40:15.894Z,53.295898
2023-03-11T07:41:15.709Z,52.667236
2023-03-11T07:42:16.805Z,53.869629
2023-03-11T07:43:15.749Z,53.070068
2023-03-11T07:44:16.497Z,53.369141
2023-03-11T07:45:14.830Z,52.966309
2023-03-11T07:46:14.778Z,52.740479
2023-03-11T07:47:15.782Z,52.23999
2023-03-11T07:48:16.726Z,52.545166
2023-03-11T07:49:14.732Z,52.23999
